sensor_id;sensor_type;location;lat;lon;timestamp;pressure;altitude;pressure_sealevel;temperature;humidity
33859;BME280;20156;47.486;12.074;2023-02-17T00:00:07;95852.44;;;2.86;100.00
33859;BME280;20156;47.486;12.074;2023-02-17T00:02:36;95852.53;;;2.94;100.00
33859;BME280;20156;47.486;12.074;2023-02-17T00:05:03;95842.25;;;2.94;100.00
33859;BME280;20156;47.486;12.074;2023-02-17T00:07:30;95848.22;;;2.94;100.00
33859;BME280;20156;47.486;12.074;2023-02-17T00:09:57;95848.34;;;3.03;100.00
33859;BME280;20156;47.486;12.074;2023-02-17T00:12:23;95857.09;;;3.10;100.00
33859;BME280;20156;47.486;12.074;2023-02-17T00:14:48;95853.59;;;3.01;100.00
33859;BME280;20156;47.486;12.074;2023-02-17T00:17:14;95845.53;;;2.86;100.00
33859;BME280;20156;47.486;12.074;2023-02-17T00:19:39;95824.44;;;2.83;100.00
33859;BME280;20156;47.486;12.074;2023-02-17T00:22:05;95816.19;;;2.89;100.00
33859;BME280;20156;47.486;12.074;2023-02-17T00:24:31;95817.75;;;2.99;100.00
33859;BME280;20156;47.486;12.074;2023-02-17T00:26:57;95827.69;;;2.85;100.00
33859;BME280;20156;47.486;12.074;2023-02-17T00:29:22;95822.22;;;2.70;100.00
33859;BME280;20156;47.486;12.074;2023-02-17T00:31:48;95815.66;;;2.85;100.00
33859;BME280;20156;47.486;12.074;2023-02-17T00:34:16;95822.22;;;2.97;100.00
33859;BME280;20156;47.486;12.074;2023-02-17T00:36:41;95831.56;;;2.98;100.00
33859;BME280;20156;47.486;12.074;2023-02-17T00:39:07;95830.47;;;3.01;100.00
33859;BME280;20156;47.486;12.074;2023-02-17T00:41:32;95830.69;;;2.80;100.00
33859;BME280;20156;47.486;12.074;2023-02-17T00:43:58;95817.84;;;2.80;100.00
33859;BME280;20156;47.486;12.074;2023-02-17T00:46:25;95811.06;;;2.79;100.00
33859;BME280;20156;47.486;12.074;2023-02-17T00:48:51;95798.34;;;2.87;100.00
33859;BME280;20156;47.486;12.074;2023-02-17T00:51:17;95802.41;;;2.90;100.00
33859;BME280;20156;47.486;12.074;2023-02-17T00:53:43;95799.03;;;2.80;100.00
33859;BME280;20156;47.486;12.074;2023-02-17T00:56:09;95794.16;;;2.86;100.00
33859;BME280;20156;47.486;12.074;2023-02-17T00:58:35;95788.75;;;2.89;100.00
33859;BME280;20156;47.486;12.074;2023-02-17T01:01:01;95785.66;;;2.86;100.00
33859;BME280;20156;47.486;12.074;2023-02-17T01:03:27;95786.19;;;2.89;100.00
33859;BME280;20156;47.486;12.074;2023-02-17T01:05:55;95789.56;;;2.90;100.00
33859;BME280;20156;47.486;12.074;2023-02-17T01:08:22;95800.22;;;2.95;100.00
33859;BME280;20156;47.486;12.074;2023-02-17T01:10:49;95814.38;;;2.99;100.00
33859;BME280;20156;47.486;12.074;2023-02-17T01:13:16;95817.41;;;2.85;100.00
33859;BME280;20156;47.486;12.074;2023-02-17T01:15:52;95805.03;;;2.70;100.00
33859;BME280;20156;47.486;12.074;2023-02-17T01:18:21;95782.31;;;2.76;100.00
33859;BME280;20156;47.486;12.074;2023-02-17T01:20:47;95767.84;;;2.75;100.00
33859;BME280;20156;47.486;12.074;2023-02-17T01:23:13;95750.31;;;2.70;100.00
33859;BME280;20156;47.486;12.074;2023-02-17T01:25:40;95755.56;;;2.68;100.00
33859;BME280;20156;47.486;12.074;2023-02-17T01:28:07;95746.06;;;2.79;100.00
33859;BME280;20156;47.486;12.074;2023-02-17T01:30:33;95742.03;;;2.76;100.00
33859;BME280;20156;47.486;12.074;2023-02-17T01:32:59;95729.34;;;2.65;100.00
33859;BME280;20156;47.486;12.074;2023-02-17T01:35:24;95619.44;;;2.68;100.00
33859;BME280;20156;47.486;12.074;2023-02-17T01:37:49;95609.75;;;2.62;100.00
33859;BME280;20156;47.486;12.074;2023-02-17T01:40:16;95597.53;;;2.74;100.00
33859;BME280;20156;47.486;12.074;2023-02-17T01:42:42;95599.59;;;2.88;100.00
33859;BME280;20156;47.486;12.074;2023-02-17T01:47:48;95603.50;;;2.92;100.00
33859;BME280;20156;47.486;12.074;2023-02-17T01:50:17;95611.06;;;2.94;100.00
33859;BME280;20156;47.486;12.074;2023-02-17T01:52:44;95618.47;;;2.97;100.00
33859;BME280;20156;47.486;12.074;2023-02-17T01:55:15;95630.19;;;2.99;100.00
33859;BME280;20156;47.486;12.074;2023-02-17T01:57:43;95619.63;;;2.85;100.00
33859;BME280;20156;47.486;12.074;2023-02-17T02:00:11;95628.56;;;2.81;100.00
33859;BME280;20156;47.486;12.074;2023-02-17T02:02:39;95617.72;;;2.69;100.00
33859;BME280;20156;47.486;12.074;2023-02-17T02:05:06;95608.25;;;2.69;100.00
33859;BME280;20156;47.486;12.074;2023-02-17T02:07:39;95584.25;;;2.79;100.00
33859;BME280;20156;47.486;12.074;2023-02-17T02:10:05;95549.19;;;2.87;100.00
33859;BME280;20156;47.486;12.074;2023-02-17T02:12:33;95544.09;;;2.95;100.00
33859;BME280;20156;47.486;12.074;2023-02-17T02:15:12;95554.03;;;2.90;100.00
33859;BME280;20156;47.486;12.074;2023-02-17T02:20:52;95553.94;;;3.00;100.00
33859;BME280;20156;47.486;12.074;2023-02-17T02:32:47;95613.47;;;3.13;100.00
33859;BME280;20156;47.486;12.074;2023-02-17T02:38:24;95601.13;;;2.81;100.00
33859;BME280;20156;47.486;12.074;2023-02-17T02:40:58;95596.13;;;2.80;100.00
33859;BME280;20156;47.486;12.074;2023-02-17T02:43:26;95587.47;;;2.81;100.00
33859;BME280;20156;47.486;12.074;2023-02-17T02:45:51;95583.38;;;2.88;100.00
33859;BME280;20156;47.486;12.074;2023-02-17T02:48:16;95572.31;;;2.87;100.00
33859;BME280;20156;47.486;12.074;2023-02-17T03:01:56;95575.75;;;2.96;100.00
33859;BME280;20156;47.486;12.074;2023-02-17T03:04:30;95563.84;;;2.77;100.00
33859;BME280;20156;47.486;12.074;2023-02-17T03:07:16;95543.97;;;2.79;100.00
33859;BME280;20156;47.486;12.074;2023-02-17T03:09:50;95538.38;;;2.84;100.00
33859;BME280;20156;47.486;12.074;2023-02-17T03:12:17;95533.97;;;2.94;100.00
33859;BME280;20156;47.486;12.074;2023-02-17T03:14:43;95540.44;;;2.98;100.00
33859;BME280;20156;47.486;12.074;2023-02-17T03:17:10;95539.78;;;2.96;100.00
33859;BME280;20156;47.486;12.074;2023-02-17T03:19:35;95540.44;;;2.98;100.00
33859;BME280;20156;47.486;12.074;2023-02-17T03:22:14;95544.56;;;2.91;100.00
33859;BME280;20156;47.486;12.074;2023-02-17T03:24:41;95538.38;;;2.84;100.00
33859;BME280;20156;47.486;12.074;2023-02-17T03:27:06;95530.75;;;2.92;100.00
33859;BME280;20156;47.486;12.074;2023-02-17T03:29:32;95543.66;;;3.00;100.00
33859;BME280;20156;47.486;12.074;2023-02-17T03:31:58;95543.66;;;3.00;100.00
33859;BME280;20156;47.486;12.074;2023-02-17T03:34:23;95546.75;;;3.04;100.00
33859;BME280;20156;47.486;12.074;2023-02-17T03:36:49;95553.72;;;3.11;100.00
33859;BME280;20156;47.486;12.074;2023-02-17T03:39:14;95569.47;;;3.16;100.00
33859;BME280;20156;47.486;12.074;2023-02-17T03:41:40;95572.97;;;3.07;100.00
33859;BME280;20156;47.486;12.074;2023-02-17T03:44:06;95570.44;;;2.97;100.00
33859;BME280;20156;47.486;12.074;2023-02-17T03:46:31;95566.28;;;2.79;100.00
33859;BME280;20156;47.486;12.074;2023-02-17T03:48:57;95548.09;;;2.72;100.00
33859;BME280;20156;47.486;12.074;2023-02-17T03:51:23;95522.09;;;2.75;100.00
33859;BME280;20156;47.486;12.074;2023-02-17T03:53:49;95515.13;;;2.85;100.00
33859;BME280;20156;47.486;12.074;2023-02-17T03:56:16;95512.84;;;2.82;100.00
33859;BME280;20156;47.486;12.074;2023-02-17T03:58:42;95498.78;;;2.86;100.00
33859;BME280;20156;47.486;12.074;2023-02-17T04:01:09;95492.41;;;2.98;100.00
33859;BME280;20156;47.486;12.074;2023-02-17T04:03:35;95502.25;;;2.85;100.00
33859;BME280;20156;47.486;12.074;2023-02-17T04:06:00;95488.19;;;2.89;100.00
33859;BME280;20156;47.486;12.074;2023-02-17T04:08:26;95494.19;;;2.98;100.00
33859;BME280;20156;47.486;12.074;2023-02-17T04:10:53;95501.00;;;3.07;100.00
33859;BME280;20156;47.486;12.074;2023-02-17T04:13:20;95518.22;;;2.89;100.00
33859;BME280;20156;47.486;12.074;2023-02-17T04:15:45;95486.16;;;2.75;100.00
33859;BME280;20156;47.486;12.074;2023-02-17T04:18:11;95469.19;;;2.82;100.00
33859;BME280;20156;47.486;12.074;2023-02-17T04:20:36;95453.88;;;2.72;100.00
33859;BME280;20156;47.486;12.074;2023-02-17T04:23:02;95443.00;;;2.79;100.00
33859;BME280;20156;47.486;12.074;2023-02-17T04:25:27;95433.88;;;2.84;100.00
33859;BME280;20156;47.486;12.074;2023-02-17T04:27:53;95432.34;;;2.91;100.00
33859;BME280;20156;47.486;12.074;2023-02-17T04:30:18;95436.50;;;2.92;100.00
33859;BME280;20156;47.486;12.074;2023-02-17T04:32:44;95426.94;;;2.77;100.00
33859;BME280;20156;47.486;12.074;2023-02-17T04:35:09;95415.53;;;2.79;100.00
33859;BME280;20156;47.486;12.074;2023-02-17T04:37:34;95412.53;;;2.84;100.00
33859;BME280;20156;47.486;12.074;2023-02-17T04:40:00;95422.41;;;2.96;100.00
33859;BME280;20156;47.486;12.074;2023-02-17T04:42:25;95447.63;;;3.01;100.00
33859;BME280;20156;47.486;12.074;2023-02-17T04:44:51;95460.06;;;3.06;100.00
33859;BME280;20156;47.486;12.074;2023-02-17T04:47:16;95472.25;;;3.04;100.00
33859;BME280;20156;47.486;12.074;2023-02-17T04:49:42;95466.72;;;2.98;100.00
33859;BME280;20156;47.486;12.074;2023-02-17T04:52:07;95460.47;;;3.01;100.00
33859;BME280;20156;47.486;12.074;2023-02-17T04:54:32;95458.06;;;2.99;100.00
33859;BME280;20156;47.486;12.074;2023-02-17T04:56:58;95453.31;;;3.05;100.00
33859;BME280;20156;47.486;12.074;2023-02-17T04:59:23;95453.47;;;3.03;100.00
33859;BME280;20156;47.486;12.074;2023-02-17T05:01:49;95457.31;;;3.07;100.00
33859;BME280;20156;47.486;12.074;2023-02-17T05:04:14;95480.16;;;3.10;100.00
33859;BME280;20156;47.486;12.074;2023-02-17T05:06:39;95475.19;;;2.91;100.00
33859;BME280;20156;47.486;12.074;2023-02-17T05:09:05;95456.25;;;2.92;100.00
33859;BME280;20156;47.486;12.074;2023-02-17T05:11:30;95443.09;;;2.95;100.00
33859;BME280;20156;47.486;12.074;2023-02-17T05:13:56;95445.06;;;3.01;100.00
33859;BME280;20156;47.486;12.074;2023-02-17T05:16:21;95440.88;;;3.00;100.00
33859;BME280;20156;47.486;12.074;2023-02-17T05:18:47;95434.50;;;3.04;100.00
33859;BME280;20156;47.486;12.074;2023-02-17T05:21:12;95435.47;;;3.03;100.00
33859;BME280;20156;47.486;12.074;2023-02-17T05:23:37;95438.53;;;3.07;100.00
33859;BME280;20156;47.486;12.074;2023-02-17T05:26:06;95441.41;;;3.04;100.00
33859;BME280;20156;47.486;12.074;2023-02-17T05:28:34;95441.69;;;3.00;100.00
33859;BME280;20156;47.486;12.074;2023-02-17T05:31:00;95438.75;;;2.87;100.00
33859;BME280;20156;47.486;12.074;2023-02-17T05:33:26;95422.22;;;2.90;100.00
33859;BME280;20156;47.486;12.074;2023-02-17T05:35:51;95415.03;;;3.01;100.00
33859;BME280;20156;47.486;12.074;2023-02-17T05:38:17;95418.72;;;2.99;100.00
33859;BME280;20156;47.486;12.074;2023-02-17T05:40:42;95418.56;;;3.00;100.00
33859;BME280;20156;47.486;12.074;2023-02-17T05:43:08;95417.91;;;2.98;100.00
33859;BME280;20156;47.486;12.074;2023-02-17T05:45:33;95418.56;;;3.00;100.00
33859;BME280;20156;47.486;12.074;2023-02-17T05:47:59;95411.22;;;3.06;100.00
33859;BME280;20156;47.486;12.074;2023-02-17T05:50:24;95409.31;;;3.08;100.00
33859;BME280;20156;47.486;12.074;2023-02-17T05:52:50;95413.81;;;3.06;100.00
33859;BME280;20156;47.486;12.074;2023-02-17T05:55:15;95420.44;;;3.16;100.00
33859;BME280;20156;47.486;12.074;2023-02-17T05:57:41;95452.31;;;3.31;100.00
33859;BME280;20156;47.486;12.074;2023-02-17T06:00:07;95473.00;;;3.22;100.00
33859;BME280;20156;47.486;12.074;2023-02-17T06:02:32;95467.19;;;2.94;100.00
33859;BME280;20156;47.486;12.074;2023-02-17T06:04:58;95454.59;;;3.09;100.00
33859;BME280;20156;47.486;12.074;2023-02-17T06:07:23;95465.72;;;3.17;100.00
33859;BME280;20156;47.486;12.074;2023-02-17T06:09:49;95463.59;;;3.05;100.00
33859;BME280;20156;47.486;12.074;2023-02-17T06:12:14;95444.88;;;2.94;100.00
33859;BME280;20156;47.486;12.074;2023-02-17T06:14:39;95433.78;;;2.94;100.00
33859;BME280;20156;47.486;12.074;2023-02-17T06:17:05;95434.28;;;2.97;100.00
33859;BME280;20156;47.486;12.074;2023-02-17T06:19:30;95429.97;;;2.98;100.00
33859;BME280;20156;47.486;12.074;2023-02-17T06:21:56;95421.03;;;3.10;100.00
33859;BME280;20156;47.486;12.074;2023-02-17T06:24:22;95430.22;;;3.13;100.00
33859;BME280;20156;47.486;12.074;2023-02-17T06:26:47;95431.78;;;3.06;100.00
33859;BME280;20156;47.486;12.074;2023-02-17T06:29:12;95424.13;;;3.14;100.00
33859;BME280;20156;47.486;12.074;2023-02-17T06:31:38;95437.47;;;3.17;100.00
33859;BME280;20156;47.486;12.074;2023-02-17T06:34:03;95446.75;;;3.10;100.00
33859;BME280;20156;47.486;12.074;2023-02-17T06:36:29;95438.88;;;3.12;100.00
33859;BME280;20156;47.486;12.074;2023-02-17T06:38:54;95432.69;;;3.22;100.00
33859;BME280;20156;47.486;12.074;2023-02-17T06:41:20;95442.00;;;3.23;100.00
33859;BME280;20156;47.486;12.074;2023-02-17T06:43:45;95437.19;;;3.20;100.00
33859;BME280;20156;47.486;12.074;2023-02-17T06:46:11;95436.00;;;3.15;100.00
33859;BME280;20156;47.486;12.074;2023-02-17T06:48:36;95439.53;;;3.14;100.00
33859;BME280;20156;47.486;12.074;2023-02-17T06:51:02;95431.50;;;3.17;100.00
33859;BME280;20156;47.486;12.074;2023-02-17T06:53:27;95426.28;;;3.26;100.00
33859;BME280;20156;47.486;12.074;2023-02-17T06:55:52;95429.69;;;3.35;100.00
33859;BME280;20156;47.486;12.074;2023-02-17T06:58:18;95431.25;;;3.28;100.00
33859;BME280;20156;47.486;12.074;2023-02-17T07:00:43;95430.47;;;3.36;100.00
33859;BME280;20156;47.486;12.074;2023-02-17T07:03:09;95424.78;;;3.50;100.00
33859;BME280;20156;47.486;12.074;2023-02-17T07:05:35;95432.47;;;3.50;100.00
33859;BME280;20156;47.486;12.074;2023-02-17T07:08:02;95436.81;;;3.49;100.00
33859;BME280;20156;47.486;12.074;2023-02-17T07:10:28;95443.50;;;3.68;100.00
33859;BME280;20156;47.486;12.074;2023-02-17T07:12:53;95463.31;;;3.76;100.00
33859;BME280;20156;47.486;12.074;2023-02-17T07:15:19;95487.28;;;3.84;100.00
33859;BME280;20156;47.486;12.074;2023-02-17T07:17:45;95504.53;;;3.92;100.00
33859;BME280;20156;47.486;12.074;2023-02-17T07:20:10;95518.13;;;3.76;100.00
33859;BME280;20156;47.486;12.074;2023-02-17T07:22:36;95502.16;;;3.65;100.00
33859;BME280;20156;47.486;12.074;2023-02-17T07:25:03;95492.72;;;3.73;100.00
33859;BME280;20156;47.486;12.074;2023-02-17T07:27:28;95483.25;;;3.82;100.00
33859;BME280;20156;47.486;12.074;2023-02-17T07:29:54;95468.50;;;3.92;100.00
33859;BME280;20156;47.486;12.074;2023-02-17T07:32:20;95466.16;;;4.07;100.00
33859;BME280;20156;47.486;12.074;2023-02-17T07:34:45;95470.81;;;4.11;100.00
33859;BME280;20156;47.486;12.074;2023-02-17T07:37:11;95485.34;;;4.20;100.00
33859;BME280;20156;47.486;12.074;2023-02-17T07:39:36;95501.44;;;4.31;100.00
33859;BME280;20156;47.486;12.074;2023-02-17T07:42:01;95516.28;;;4.45;100.00
33859;BME280;20156;47.486;12.074;2023-02-17T07:44:29;95553.31;;;4.52;100.00
33859;BME280;20156;47.486;12.074;2023-02-17T07:46:54;95600.69;;;4.67;100.00
33859;BME280;20156;47.486;12.074;2023-02-17T07:49:20;95642.28;;;4.80;100.00
33859;BME280;20156;47.486;12.074;2023-02-17T07:51:45;95679.06;;;4.91;100.00
33859;BME280;20156;47.486;12.074;2023-02-17T07:54:11;95702.09;;;4.92;100.00
33859;BME280;20156;47.486;12.074;2023-02-17T07:56:37;95713.53;;;4.98;100.00
33859;BME280;20156;47.486;12.074;2023-02-17T07:59:03;95732.69;;;4.95;100.00
33859;BME280;20156;47.486;12.074;2023-02-17T08:01:32;95749.16;;;5.02;100.00
33859;BME280;20156;47.486;12.074;2023-02-17T08:03:57;95770.63;;;5.11;100.00
33859;BME280;20156;47.486;12.074;2023-02-17T08:06:23;95779.66;;;5.15;100.00
33859;BME280;20156;47.486;12.074;2023-02-17T08:08:50;95791.75;;;5.14;100.00
33859;BME280;20156;47.486;12.074;2023-02-17T08:11:35;95774.81;;;5.04;100.00
33859;BME280;20156;47.486;12.074;2023-02-17T08:14:24;95801.41;;;5.12;100.00
33859;BME280;20156;47.486;12.074;2023-02-17T08:16:50;95816.78;;;5.22;100.00
33859;BME280;20156;47.486;12.074;2023-02-17T08:19:15;95827.44;;;5.35;100.00
33859;BME280;20156;47.486;12.074;2023-02-17T08:21:41;95829.44;;;5.50;100.00
33859;BME280;20156;47.486;12.074;2023-02-17T08:24:06;95816.56;;;5.58;100.00
33859;BME280;20156;47.486;12.074;2023-02-17T08:26:32;95814.50;;;5.69;100.00
33859;BME280;20156;47.486;12.074;2023-02-17T08:28:57;95838.72;;;5.77;100.00
33859;BME280;20156;47.486;12.074;2023-02-17T08:31:31;95875.34;;;5.72;100.00
33859;BME280;20156;47.486;12.074;2023-02-17T08:33:59;95900.94;;;5.65;100.00
33859;BME280;20156;47.486;12.074;2023-02-17T08:36:25;95919.97;;;5.64;100.00
33859;BME280;20156;47.486;12.074;2023-02-17T08:38:52;95933.09;;;5.79;100.00
33859;BME280;20156;47.486;12.074;2023-02-17T08:41:23;95941.53;;;5.89;100.00
33859;BME280;20156;47.486;12.074;2023-02-17T08:43:50;95940.16;;;6.03;100.00
33859;BME280;20156;47.486;12.074;2023-02-17T08:46:17;95926.59;;;6.01;100.00
33859;BME280;20156;47.486;12.074;2023-02-17T08:48:43;95919.19;;;6.06;100.00
33859;BME280;20156;47.486;12.074;2023-02-17T08:51:12;95920.16;;;6.13;100.00
33859;BME280;20156;47.486;12.074;2023-02-17T08:53:38;95931.34;;;5.88;100.00
33859;BME280;20156;47.486;12.074;2023-02-17T08:56:04;95938.25;;;6.05;100.00
33859;BME280;20156;47.486;12.074;2023-02-17T08:58:30;95948.75;;;6.20;100.00
33859;BME280;20156;47.486;12.074;2023-02-17T09:00:56;95964.59;;;6.25;100.00
33859;BME280;20156;47.486;12.074;2023-02-17T09:03:21;95964.78;;;6.31;100.00
33859;BME280;20156;47.486;12.074;2023-02-17T09:05:47;95971.06;;;6.37;100.00
33859;BME280;20156;47.486;12.074;2023-02-17T09:08:12;95980.88;;;6.17;100.00
33859;BME280;20156;47.486;12.074;2023-02-17T09:10:38;95977.31;;;6.18;100.00
33859;BME280;20156;47.486;12.074;2023-02-17T09:13:04;95972.03;;;6.36;100.00
33859;BME280;20156;47.486;12.074;2023-02-17T09:15:30;95971.28;;;6.60;100.00
33859;BME280;20156;47.486;12.074;2023-02-17T09:17:55;95975.66;;;6.68;100.00
33859;BME280;20156;47.486;12.074;2023-02-17T09:20:21;95981.81;;;6.83;100.00
33859;BME280;20156;47.486;12.074;2023-02-17T09:22:47;95981.19;;;6.89;100.00
33859;BME280;20156;47.486;12.074;2023-02-17T09:25:13;95987.31;;;6.96;100.00
33859;BME280;20156;47.486;12.074;2023-02-17T09:27:38;95986.66;;;7.02;100.00
33859;BME280;20156;47.486;12.074;2023-02-17T09:30:04;95995.41;;;6.93;100.00
33859;BME280;20156;47.486;12.074;2023-02-17T09:32:29;96007.53;;;7.01;100.00
33859;BME280;20156;47.486;12.074;2023-02-17T09:34:55;96010.59;;;7.04;100.00
33859;BME280;20156;47.486;12.074;2023-02-17T09:37:22;96016.56;;;7.21;100.00
33859;BME280;20156;47.486;12.074;2023-02-17T09:39:49;96015.28;;;7.33;100.00
33859;BME280;20156;47.486;12.074;2023-02-17T09:42:22;96016.41;;;7.39;100.00
33859;BME280;20156;47.486;12.074;2023-02-17T09:44:56;96029.19;;;7.57;100.00
33859;BME280;20156;47.486;12.074;2023-02-17T09:47:37;96028.50;;;7.71;100.00
33859;BME280;20156;47.486;12.074;2023-02-17T09:50:09;96035.63;;;7.69;100.00
33859;BME280;20156;47.486;12.074;2023-02-17T09:55:24;96036.63;;;7.60;100.00
33859;BME280;20156;47.486;12.074;2023-02-17T10:00:29;96034.81;;;7.76;100.00
33859;BME280;20156;47.486;12.074;2023-02-17T10:05:40;96049.06;;;7.64;100.00
33859;BME280;20156;47.486;12.074;2023-02-17T10:08:13;96058.63;;;7.64;100.00
33859;BME280;20156;47.486;12.074;2023-02-17T10:11:13;96063.94;;;7.70;100.00
33859;BME280;20156;47.486;12.074;2023-02-17T10:13:43;96074.94;;;7.72;100.00
33859;BME280;20156;47.486;12.074;2023-02-17T10:16:19;96074.63;;;7.83;100.00
33859;BME280;20156;47.486;12.074;2023-02-17T10:18:52;96077.69;;;7.87;100.00
33859;BME280;20156;47.486;12.074;2023-02-17T10:21:26;96081.25;;;7.94;100.00
33859;BME280;20156;47.486;12.074;2023-02-17T10:23:53;96083.50;;;7.89;100.00
33859;BME280;20156;47.486;12.074;2023-02-17T10:26:48;96070.72;;;7.88;100.00
33859;BME280;20156;47.486;12.074;2023-02-17T10:29:33;96083.19;;;7.92;100.00
33859;BME280;20156;47.486;12.074;2023-02-17T10:32:14;96083.66;;;7.88;100.00
33859;BME280;20156;47.486;12.074;2023-02-17T10:34:56;96087.06;;;7.88;100.00
33859;BME280;20156;47.486;12.074;2023-02-17T10:37:42;96078.50;;;7.88;100.00
33859;BME280;20156;47.486;12.074;2023-02-17T10:40:23;96075.56;;;8.07;100.00
33859;BME280;20156;47.486;12.074;2023-02-17T10:43:03;96078.09;;;8.23;100.00
33859;BME280;20156;47.486;12.074;2023-02-17T10:45:34;96071.06;;;8.48;100.00
33859;BME280;20156;47.486;12.074;2023-02-17T10:48:04;96066.38;;;8.43;100.00
33859;BME280;20156;47.486;12.074;2023-02-17T10:50:31;96066.16;;;8.53;100.00
33859;BME280;20156;47.486;12.074;2023-02-17T10:52:56;96082.72;;;8.52;100.00
33859;BME280;20156;47.486;12.074;2023-02-17T10:55:38;96073.53;;;8.41;100.00
33859;BME280;20156;47.486;12.074;2023-02-17T10:58:25;96085.34;;;8.44;100.00
33859;BME280;20156;47.486;12.074;2023-02-17T11:00:54;96080.56;;;8.56;100.00
33859;BME280;20156;47.486;12.074;2023-02-17T11:03:26;96079.19;;;8.45;100.00
33859;BME280;20156;47.486;12.074;2023-02-17T11:06:03;96078.97;;;8.55;100.00
33859;BME280;20156;47.486;12.074;2023-02-17T11:08:33;96085.91;;;8.62;100.00
33859;BME280;20156;47.486;12.074;2023-02-17T11:11:05;96079.13;;;8.61;100.00
33859;BME280;20156;47.486;12.074;2023-02-17T11:13:39;96075.25;;;8.57;100.00
33859;BME280;20156;47.486;12.074;2023-02-17T11:16:21;96067.59;;;8.64;100.00
33859;BME280;20156;47.486;12.074;2023-02-17T11:18:49;96074.31;;;8.81;100.00
33859;BME280;20156;47.486;12.074;2023-02-17T11:21:15;96068.34;;;9.03;100.00
33859;BME280;20156;47.486;12.074;2023-02-17T11:24:09;96055.59;;;8.94;100.00
33859;BME280;20156;47.486;12.074;2023-02-17T11:26:35;96052.03;;;8.95;100.00
33859;BME280;20156;47.486;12.074;2023-02-17T11:29:15;96042.78;;;9.15;100.00
33859;BME280;20156;47.486;12.074;2023-02-17T11:32:09;96027.44;;;9.05;100.00
33859;BME280;20156;47.486;12.074;2023-02-17T11:34:39;96031.78;;;8.90;100.00
33859;BME280;20156;47.486;12.074;2023-02-17T11:39:42;96025.19;;;8.80;100.00
33859;BME280;20156;47.486;12.074;2023-02-17T11:42:26;96023.84;;;8.92;100.00
33859;BME280;20156;47.486;12.074;2023-02-17T11:44:54;96002.06;;;9.16;100.00
33859;BME280;20156;47.486;12.074;2023-02-17T11:50:26;95996.06;;;9.53;100.00
33859;BME280;20156;47.486;12.074;2023-02-17T11:56:07;96000.50;;;9.29;100.00
33859;BME280;20156;47.486;12.074;2023-02-17T12:04:39;96023.63;;;9.39;100.00
33859;BME280;20156;47.486;12.074;2023-02-17T12:10:21;95999.50;;;9.68;100.00
33859;BME280;20156;47.486;12.074;2023-02-17T12:12:57;95998.59;;;10.05;100.00
33859;BME280;20156;47.486;12.074;2023-02-17T12:18:32;95953.91;;;10.24;100.00
33859;BME280;20156;47.486;12.074;2023-02-17T12:26:38;95906.09;;;10.11;100.00
33859;BME280;20156;47.486;12.074;2023-02-17T12:36:57;95954.16;;;10.30;100.00
33859;BME280;20156;47.486;12.074;2023-02-17T12:39:28;95957.19;;;10.33;100.00
33859;BME280;20156;47.486;12.074;2023-02-17T12:42:22;95941.59;;;10.33;100.00
33859;BME280;20156;47.486;12.074;2023-02-17T12:44:58;95945.59;;;10.36;100.00
33859;BME280;20156;47.486;12.074;2023-02-17T12:47:58;95925.00;;;10.34;100.00
33859;BME280;20156;47.486;12.074;2023-02-17T12:50:32;95910.44;;;10.40;100.00
33859;BME280;20156;47.486;12.074;2023-02-17T12:53:02;95898.50;;;10.45;100.00
33859;BME280;20156;47.486;12.074;2023-02-17T12:55:36;95888.16;;;10.52;100.00
33859;BME280;20156;47.486;12.074;2023-02-17T12:58:11;95873.34;;;10.52;100.00
33859;BME280;20156;47.486;12.074;2023-02-17T13:00:43;95873.06;;;10.62;100.00
33859;BME280;20156;47.486;12.074;2023-02-17T13:03:10;95865.91;;;10.71;100.00
33859;BME280;20156;47.486;12.074;2023-02-17T13:05:40;95860.78;;;10.77;100.00
33859;BME280;20156;47.486;12.074;2023-02-17T13:08:36;95874.03;;;10.82;100.00
33859;BME280;20156;47.486;12.074;2023-02-17T13:11:10;95861.63;;;10.84;100.00
33859;BME280;20156;47.486;12.074;2023-02-17T13:13:36;95845.50;;;10.96;100.00
33859;BME280;20156;47.486;12.074;2023-02-17T13:16:04;95836.94;;;11.08;100.00
33859;BME280;20156;47.486;12.074;2023-02-17T13:18:33;95819.28;;;10.97;100.00
33859;BME280;20156;47.486;12.074;2023-02-17T13:21:25;95809.25;;;10.94;100.00
33859;BME280;20156;47.486;12.074;2023-02-17T13:24:00;95801.16;;;11.17;100.00
33859;BME280;20156;47.486;12.074;2023-02-17T13:26:31;95812.47;;;11.31;100.00
33859;BME280;20156;47.486;12.074;2023-02-17T13:31:53;95816.13;;;11.84;100.00
33859;BME280;20156;47.486;12.074;2023-02-17T13:34:30;95820.84;;;11.74;100.00
33859;BME280;20156;47.486;12.074;2023-02-17T13:36:57;95815.03;;;11.65;100.00
33859;BME280;20156;47.486;12.074;2023-02-17T13:41:58;95821.97;;;11.10;100.00
33859;BME280;20156;47.486;12.074;2023-02-17T13:47:14;95812.28;;;11.04;100.00
33859;BME280;20156;47.486;12.074;2023-02-17T13:49:40;95837.94;;;11.07;100.00
33859;BME280;20156;47.486;12.074;2023-02-17T13:52:16;95846.13;;;11.04;100.00
33859;BME280;20156;47.486;12.074;2023-02-17T13:57:28;95872.34;;;10.96;100.00
33859;BME280;20156;47.486;12.074;2023-02-17T14:00:23;95848.03;;;10.89;100.00
33859;BME280;20156;47.486;12.074;2023-02-17T14:02:51;95885.72;;;10.93;100.00
33859;BME280;20156;47.486;12.074;2023-02-17T14:08:03;95924.41;;;10.96;100.00
33859;BME280;20156;47.486;12.074;2023-02-17T14:10:29;95929.88;;;11.08;100.00
33859;BME280;20156;47.486;12.074;2023-02-17T14:12:55;95923.06;;;11.07;100.00
33859;BME280;20156;47.486;12.074;2023-02-17T14:15:24;95905.75;;;11.21;100.00
33859;BME280;20156;47.486;12.074;2023-02-17T14:17:50;95868.06;;;11.17;100.00
33859;BME280;20156;47.486;12.074;2023-02-17T14:20:32;95870.69;;;11.23;100.00